DAOODAON

Guest
Details From DAOO - ES SENIA
To DAON - ZENATA
Flight Number -
Tags generated
Created
Modified
Stats Distance 55 nm / 102 km
Max Altitude 6,800 ft / 2,073 m
Waypoints 3
Social Downloads 4
Likes 0
Share VATSIM

Download

Looking for another format? Having issues loading an existing format? Contact us
Advertisement - Login to hide

Notes

Basic altitude profile: - Ascent Rate: 2500ft/min - Ascent Speed: 250kts - Cruise Altitude: 35000ft - Cruise Speed: 420kts - Descent Rate: 1500ft/min - Descent Speed: 250kts Options: - Use NATs: yes - Use PACOTS: yes - Use low airways: yes - Use high airways: yes

Route

DAOO HMB DAON

ID Type Via Altitude Latitude Longitude Leg Dist Tot Dist Heading (true) Name
O DAOO APT - 0 ft / 0 m 35.62386˚ -0.62118˚ - 0 nm - ES SENIA
HMB NDB - 6,800 ft / 2,073 m 35.36306˚ -0.96889˚ 23 nm 23 nm 227° / 227° HAMMAM BOU HADJAR NDB
O DAON APT - 0 ft / 0 m 35.01335˚ -1.45720˚ 31 nm 54 nm 229° / 229° ZENATA

Altitude Profile

Advertisement - Login to hide

DAOO

Details ICAO DAOO (ORN)
Name ES SENIA
Region Algeria
Timezone Africa/Algiers (UTC+1.0)
Stats Elevation 295 ft / 90 m (AMSL)
Location 35.623858° -0.621183°
Runways 1
Magnetic Variation 0.152° E

METAR

DAOO 151400Z 25016KT 9999 FEW020 BKN026 17/12 Q1013

Decode

TAF

TAF DAOO 151100Z 1512/1612 24018KT 9999 BKN020 TEMPO 1512/1524 27022G35KT 8000 FEW023CB TEMPO 1520/1610 5000 SHRA PROB40 TEMPO 1602/1609 TSRA SCT020CB

Decode

Departure Runways

ID Width Length Bearing (true) Bearing (mag) Surface Threshold Offset Overrun Length
07 148 ft / 45 m 10,006 ft / 3,050 m 67.06° 66.91° Asphalt 0 ft / 0 m 328 ft / 100 m
25 148 ft / 45 m 10,006 ft / 3,050 m 247.08° 246.93° Asphalt 196 ft / 60 m 0 ft / 0 m

DAON

Details ICAO DAON (TLM)
Name ZENATA
Region Algeria
Timezone Africa/Algiers (UTC+1.0)
Stats Elevation 814 ft / 248 m (AMSL)
Location 35.013350° -1.457202°
Runways 1
Magnetic Variation 0.067° W

METAR

DAON 151400Z 24018KT 9999 FEW026 19/08 Q1014

Decode

TAF

TAF DAON 151100Z 1512/1612 22015KT 9999 SCT026 BECMG 1514/1516 28016KT BKN026 TEMPO 1516/1518 29018G28KT TEMPO 1602/1611 5000 RA BKN020 FEW023CB PROB30 TEMPO 1605/1610 -TSRA

Decode

Destination Runways

ID Width Length Bearing (true) Bearing (mag) Surface Threshold Offset Overrun Length
07 148 ft / 45 m 8,521 ft / 2,597 m 69.94° 70.01° Asphalt 0 ft / 0 m 0 ft / 0 m
25 148 ft / 45 m 8,521 ft / 2,597 m 249.96° 250.03° Asphalt 0 ft / 0 m 0 ft / 0 m

Popular Alternatives